Time;durP1;ratioP1;P1;durP2;ratioP2;P2;SDS_P1;SDS_P2;PMS_P1;PMS_P2;Temp;Humidity;BMP_temperature;BMP_pressure;BME280_temperature;BME280_humidity;BME280_pressure;Samples;Min_cycle;Max_cycle;Signal;HPM_P1;HPM_P2
2022/08/05 00:00:05;;;;;;;0.32;0.32;;;18.80;99.90;;;;;;5132745;28;20510;-87
2022/08/05 00:02:32;;;;;;;0.20;0.17;;;18.70;99.90;;;;;;5133278;28;20038;-87
2022/08/05 00:04:59;;;;;;;0.10;0.10;;;18.70;99.90;;;;;;5132894;28;20408;-86
2022/08/05 00:07:26;;;;;;;0.20;0.20;;;18.70;99.90;;;;;;5149956;28;20507;-86
2022/08/05 00:09:52;;;;;;;0.32;0.22;;;18.70;99.90;;;;;;5149981;28;20111;-86
2022/08/05 00:12:19;;;;;;;0.10;0.10;;;18.60;99.90;;;;;;5150327;28;20130;-85
2022/08/05 00:14:46;;;;;;;0.30;0.20;;;18.60;99.90;;;;;;5149500;28;20039;-87
2022/08/05 00:17:13;;;;;;;0.25;0.25;;;18.60;99.90;;;;;;5132875;28;20043;-87
2022/08/05 00:19:40;;;;;;;0.30;0.20;;;18.60;99.90;;;;;;5132911;28;20075;-86
2022/08/05 00:22:06;;;;;;;0.20;0.15;;;18.60;99.90;;;;;;5166907;27;20043;-87
2022/08/05 00:24:33;;;;;;;0.22;0.22;;;18.60;99.90;;;;;;5149477;28;20381;-86
2022/08/05 00:27:00;;;;;;;0.20;0.20;;;18.50;99.90;;;;;;5149702;28;20039;-86
2022/08/05 00:29:27;;;;;;;0.20;0.20;;;18.50;99.90;;;;;;5132578;28;20523;-87
2022/08/05 00:31:54;;;;;;;0.20;0.10;;;18.50;99.90;;;;;;5132247;28;20156;-85
2022/08/05 00:34:21;;;;;;;0.20;0.20;;;18.40;99.90;;;;;;5132417;28;20511;-87
2022/08/05 00:36:47;;;;;;;0.28;0.25;;;18.40;99.90;;;;;;5149704;28;20043;-86
2022/08/05 00:39:14;;;;;;;0.40;0.30;;;18.30;99.90;;;;;;5132201;28;20040;-86
2022/08/05 00:41:45;;;;;;;0.10;0.10;;;18.30;99.90;;;;;;5149685;28;20557;-86
2022/08/05 00:44:12;;;;;;;0.20;0.20;;;18.30;99.90;;;;;;5132192;28;20508;-86
2022/08/05 00:46:39;;;;;;;0.50;0.30;;;18.30;99.90;;;;;;5132357;28;20074;-87
2022/08/05 00:49:05;;;;;;;0.40;0.30;;;18.30;99.90;;;;;;5148883;28;20511;-85
2022/08/05 00:51:32;;;;;;;0.47;0.32;;;18.30;99.90;;;;;;5131874;28;20044;-87
2022/08/05 00:53:59;;;;;;;0.10;0.10;;;18.20;99.90;;;;;;5132170;28;20042;-87
2022/08/05 00:56:25;;;;;;;0.20;0.20;;;18.30;99.90;;;;;;5132167;28;20410;-86
2022/08/05 00:58:52;;;;;;;0.20;0.20;;;18.20;99.90;;;;;;5132247;28;20105;-87
2022/08/05 01:01:19;;;;;;;0.10;0.10;;;18.30;99.90;;;;;;5132087;28;20046;-85
2022/08/05 01:03:45;;;;;;;0.10;0.10;;;18.20;99.90;;;;;;5149323;28;20502;-87
2022/08/05 01:06:12;;;;;;;2.28;0.57;;;18.30;99.90;;;;;;5148779;28;20039;-87
2022/08/05 01:08:39;;;;;;;0.73;0.50;;;18.30;99.90;;;;;;5149409;28;20048;-87
2022/08/05 01:11:14;;;;;;;0.22;0.20;;;18.30;99.90;;;;;;5148482;28;20039;-86
2022/08/05 01:13:53;;;;;;;;;;;18.30;99.90;;;;;;5132212;28;20039;-86
2022/08/05 01:16:53;;;;;;;0.10;0.10;;;18.30;99.90;;;;;;5165767;27;19931;-86
2022/08/05 01:19:47;;;;;;;0.28;0.28;;;18.30;99.90;;;;;;5126734;28;20600;-86
2022/08/05 01:22:46;;;;;;;0.20;0.10;;;18.40;99.90;;;;;;5131114;28;20699;-87
2022/08/05 01:25:28;;;;;;;0.13;0.13;;;18.40;99.90;;;;;;5131201;28;20045;-87
2022/08/05 01:28:23;;;;;;;0.22;0.20;;;18.40;99.90;;;;;;5148380;28;20385;-85
2022/08/05 01:31:34;;;;;;;0.40;0.30;;;18.40;99.90;;;;;;5166041;27;20061;-86
2022/08/05 01:34:12;;;;;;;0.10;0.03;;;18.40;99.90;;;;;;5126457;28;20050;-87
2022/08/05 01:36:48;;;;;;;0.10;0.10;;;18.40;99.90;;;;;;5131418;28;20044;-86
2022/08/05 01:39:16;;;;;;;0.20;0.20;;;18.40;99.90;;;;;;5131183;28;20043;-87
2022/08/05 01:41:44;;;;;;;0.10;0.10;;;18.40;99.90;;;;;;5147942;28;20043;-86
2022/08/05 01:44:13;;;;;;;0.20;0.20;;;18.40;99.90;;;;;;5148557;28;20031;-86
2022/08/05 01:46:41;;;;;;;0.32;0.20;;;18.40;99.90;;;;;;5131155;28;20407;-87
2022/08/05 01:49:12;;;;;;;0.20;0.20;;;18.40;99.90;;;;;;5164914;27;20416;-86
2022/08/05 01:51:40;;;;;;;0.15;0.15;;;18.40;99.90;;;;;;5165378;27;20084;-87
2022/08/05 01:54:08;;;;;;;0.20;0.20;;;18.30;99.90;;;;;;5147393;28;20089;-87
2022/08/05 01:56:40;;;;;;;0.10;0.10;;;18.30;99.90;;;;;;5147728;28;20694;-87
2022/08/05 01:59:10;;;;;;;0.00;0.00;;;18.30;99.90;;;;;;5130085;28;20050;-86
2022/08/05 02:01:38;;;;;;;0.20;0.15;;;18.40;99.90;;;;;;5110719;28;20036;-86
2022/08/05 02:04:07;;;;;;;0.10;0.10;;;18.40;99.90;;;;;;5127400;28;20131;-87
2022/08/05 02:06:34;;;;;;;0.10;0.10;;;18.40;99.90;;;;;;5127264;28;20425;-87
2022/08/05 02:09:01;;;;;;;0.10;0.10;;;18.40;99.90;;;;;;5127486;27;20078;-86
2022/08/05 02:11:48;;;;;;;0.10;0.10;;;18.40;99.90;;;;;;5110168;28;20489;-87
2022/08/05 02:14:36;;;;;;;0.10;0.10;;;18.40;99.90;;;;;;5126942;28;20036;-87
2022/08/05 02:17:09;;;;;;;0.10;0.10;;;18.40;99.90;;;;;;5110401;28;20044;-86
2022/08/05 02:19:42;;;;;;;0.00;0.00;;;18.40;99.90;;;;;;5110166;28;20072;-86
2022/08/05 02:22:20;;;;;;;0.20;0.10;;;18.40;99.90;;;;;;5110811;28;20038;-86
2022/08/05 02:24:51;;;;;;;0.00;0.00;;;18.40;99.90;;;;;;5110337;28;20071;-87
2022/08/05 02:27:20;;;;;;;0.10;0.10;;;18.40;99.90;;;;;;5109407;28;20044;-86
2022/08/05 02:29:48;;;;;;;0.20;0.10;;;18.40;99.90;;;;;;5109786;28;20483;-86
2022/08/05 02:32:19;;;;;;;0.20;0.20;;;18.40;99.90;;;;;;5110169;28;20070;-87
2022/08/05 02:34:46;;;;;;;0.20;0.20;;;18.40;99.90;;;;;;5109584;28;20044;-86
2022/08/05 02:37:13;;;;;;;0.40;0.25;;;18.40;99.90;;;;;;5121891;28;20100;-87
2022/08/05 02:39:41;;;;;;;0.10;0.10;;;18.40;99.90;;;;;;5113433;28;20078;-86
2022/08/05 02:42:09;;;;;;;0.15;0.13;;;18.40;99.90;;;;;;5113671;28;20047;-87
2022/08/05 02:44:38;;;;;;;0.20;0.20;;;18.40;99.90;;;;;;5096829;28;20043;-87
2022/08/05 02:47:08;;;;;;;0.10;0.10;;;18.40;99.90;;;;;;5129833;28;20500;-87
2022/08/05 02:49:43;;;;;;;0.73;0.30;;;18.40;99.90;;;;;;5129921;28;20052;-86
2022/08/05 02:52:12;;;;;;;;;;;18.30;99.90;;;;;;5130575;28;20043;-87
2022/08/05 02:54:41;;;;;;;0.20;0.20;;;18.30;99.90;;;;;;5129826;28;19920;-86
2022/08/05 02:57:13;;;;;;;0.05;0.05;;;18.30;99.90;;;;;;5164256;27;20507;-87
2022/08/05 02:59:48;;;;;;;0.00;0.00;;;18.30;99.90;;;;;;5129975;28;20484;-87
2022/08/05 03:02:19;;;;;;;0.20;0.20;;;18.30;99.90;;;;;;5129800;28;20042;-87
2022/08/05 03:04:47;;;;;;;0.32;0.17;;;18.40;99.90;;;;;;5129496;28;20404;-86
2022/08/05 03:07:15;;;;;;;0.35;0.30;;;18.30;99.90;;;;;;5128686;28;20070;-86
2022/08/05 03:09:43;;;;;;;0.00;0.00;;;18.30;99.90;;;;;;5146532;28;20042;-87
2022/08/05 03:12:27;;;;;;;0.20;0.20;;;18.30;99.90;;;;;;5129311;28;20500;-87
2022/08/05 03:14:54;;;;;;;0.10;0.10;;;18.30;99.90;;;;;;5129661;28;20040;-86
2022/08/05 03:17:21;;;;;;;0.10;0.10;;;18.30;99.90;;;;;;5146289;28;20040;-87
2022/08/05 03:19:48;;;;;;;0.47;0.20;;;18.30;99.90;;;;;;5129498;28;20036;-87
2022/08/05 03:22:14;;;;;;;0.20;0.20;;;18.30;99.90;;;;;;5180780;27;20051;-87
2022/08/05 03:24:43;;;;;;;0.10;0.10;;;18.30;99.90;;;;;;5163228;28;20039;-87
2022/08/05 03:27:11;;;;;;;0.17;0.17;;;18.30;99.90;;;;;;5146373;28;20108;-87
2022/08/05 03:29:39;;;;;;;0.10;0.10;;;18.30;99.90;;;;;;5129180;28;20097;-86
2022/08/05 03:32:10;;;;;;;0.30;0.20;;;18.30;99.90;;;;;;5129559;28;20047;-86
2022/08/05 03:34:38;;;;;;;0.10;0.10;;;18.30;99.90;;;;;;5146121;28;20043;-86
2022/08/05 03:37:05;;;;;;;0.80;0.20;;;18.30;99.90;;;;;;5129772;28;20044;-86
2022/08/05 03:39:31;;;;;;;0.20;0.20;;;18.30;99.90;;;;;;5129629;28;20043;-86
2022/08/05 03:41:58;;;;;;;0.10;0.10;;;18.20;99.90;;;;;;5129661;28;20036;-87
2022/08/05 03:44:25;;;;;;;0.17;0.17;;;18.20;99.90;;;;;;5146531;28;20041;-87
2022/08/05 03:46:52;;;;;;;0.43;0.28;;;18.20;99.90;;;;;;5163565;28;20543;-89
2022/08/05 03:49:18;;;;;;;0.40;0.35;;;18.20;99.90;;;;;;5129306;28;20063;-86
2022/08/05 03:51:57;;;;;;;0.20;0.15;;;18.20;99.90;;;;;;5163198;28;20404;-87
2022/08/05 03:55:09;;;;;;;0.08;0.08;;;18.20;99.90;;;;;;5129216;28;20514;-87
2022/08/05 03:57:39;;;;;;;0.10;0.10;;;18.20;99.90;;;;;;5104114;28;20512;-87
2022/08/05 04:00:14;;;;;;;0.28;0.28;;;18.10;99.90;;;;;;5070710;28;20064;-86
2022/08/05 04:02:45;;;;;;;0.50;0.40;;;18.10;99.90;;;;;;5081731;28;20094;-87
2022/08/05 04:05:13;;;;;;;0.10;0.10;;;18.20;99.90;;;;;;5108832;28;20654;-85
2022/08/05 04:07:40;;;;;;;1.55;0.50;;;18.10;99.90;;;;;;5092282;28;20080;-87
2022/08/05 04:10:08;;;;;;;0.20;0.20;;;18.20;99.90;;;;;;5092839;28;20044;-86
2022/08/05 04:12:35;;;;;;;0.30;0.22;;;18.20;99.90;;;;;;5092689;28;20044;-86
2022/08/05 04:15:02;;;;;;;0.30;0.30;;;18.10;99.90;;;;;;5128143;28;20349;-87
2022/08/05 04:17:29;;;;;;;0.32;0.20;;;18.10;99.90;;;;;;5129971;28;20813;-86
2022/08/05 04:19:55;;;;;;;0.40;0.38;;;18.10;99.90;;;;;;5116371;28;20046;-86
2022/08/05 04:22:22;;;;;;;0.28;0.22;;;18.10;99.90;;;;;;5099862;28;20124;-87
2022/08/05 04:24:49;;;;;;;0.10;0.10;;;18.10;99.90;;;;;;5133115;28;20046;-87
2022/08/05 04:27:16;;;;;;;0.10;0.10;;;18.10;99.90;;;;;;5100315;28;20067;-88
2022/08/05 04:29:43;;;;;;;0.10;0.10;;;18.10;99.90;;;;;;5150231;28;20067;-86
2022/08/05 04:32:09;;;;;;;0.30;0.30;;;18.10;99.90;;;;;;5133508;28;20042;-87
2022/08/05 04:34:36;;;;;;;0.05;0.05;;;18.10;99.90;;;;;;5133185;28;20032;-87
2022/08/05 04:37:03;;;;;;;0.10;0.10;;;18.10;99.90;;;;;;5149763;28;20488;-86
2022/08/05 04:39:30;;;;;;;0.95;0.50;;;18.00;99.90;;;;;;5132866;28;20035;-86
2022/08/05 04:41:58;;;;;;;0.50;0.32;;;18.10;99.90;;;;;;5133254;28;20078;-87
2022/08/05 04:44:24;;;;;;;0.40;0.22;;;18.10;99.90;;;;;;5150341;28;20039;-86
2022/08/05 04:46:51;;;;;;;0.28;0.20;;;18.10;99.90;;;;;;5132696;28;20564;-87
2022/08/05 04:49:18;;;;;;;0.20;0.20;;;18.10;99.90;;;;;;5132741;28;20048;-87
2022/08/05 04:51:44;;;;;;;0.10;0.10;;;18.00;99.90;;;;;;5132651;28;20039;-86
2022/08/05 04:54:13;;;;;;;0.13;0.13;;;18.00;99.90;;;;;;5150294;28;20122;-86
2022/08/05 04:56:40;;;;;;;0.15;0.15;;;18.10;99.90;;;;;;5149543;28;20044;-87
2022/08/05 04:59:07;;;;;;;0.22;0.22;;;18.10;99.90;;;;;;5150227;28;20135;-87
2022/08/05 05:01:34;;;;;;;0.15;0.15;;;18.00;99.90;;;;;;5132731;28;20524;-87
2022/08/05 05:04:00;;;;;;;0.60;0.40;;;18.00;99.90;;;;;;5149695;28;20503;-86
2022/08/05 05:06:27;;;;;;;0.10;0.10;;;18.00;99.90;;;;;;5133090;28;20396;-87
2022/08/05 05:08:54;;;;;;;0.10;0.10;;;18.00;99.90;;;;;;5149677;28;20452;-87
2022/08/05 05:11:21;;;;;;;0.20;0.20;;;18.00;99.90;;;;;;5132815;28;20507;-86
2022/08/05 05:13:47;;;;;;;0.20;0.15;;;18.00;99.90;;;;;;5149106;28;20044;-88
2022/08/05 05:16:14;;;;;;;0.10;0.10;;;18.00;99.90;;;;;;5132716;28;20054;-87
2022/08/05 05:18:42;;;;;;;0.17;0.17;;;18.00;99.90;;;;;;5149252;28;20032;-86
2022/08/05 05:21:09;;;;;;;0.20;0.20;;;18.00;99.90;;;;;;5132623;28;20047;-87
2022/08/05 05:23:35;;;;;;;0.35;0.28;;;18.10;99.90;;;;;;5149033;28;20035;-87
2022/08/05 05:26:03;;;;;;;0.38;0.20;;;18.10;99.90;;;;;;5132238;28;20053;-87
2022/08/05 05:28:29;;;;;;;0.10;0.10;;;18.10;99.90;;;;;;5149124;28;20084;-87
2022/08/05 05:30:57;;;;;;;0.10;0.10;;;18.10;99.90;;;;;;5148314;28;20040;-87
2022/08/05 05:33:23;;;;;;;0.75;0.40;;;18.20;99.90;;;;;;5165924;27;20086;-87
2022/08/05 05:35:50;;;;;;;0.38;0.20;;;18.20;99.90;;;;;;5148990;28;20074;-87
2022/08/05 05:38:17;;;;;;;0.40;0.30;;;18.20;99.90;;;;;;5148970;28;20044;-87
2022/08/05 05:40:44;;;;;;;0.50;0.40;;;18.10;99.90;;;;;;5131483;28;20122;-86
2022/08/05 05:43:10;;;;;;;0.38;0.38;;;18.20;99.90;;;;;;5132300;28;20088;-87
2022/08/05 05:45:37;;;;;;;0.10;0.10;;;18.30;99.90;;;;;;5131625;28;20035;-87
2022/08/05 05:48:07;;;;;;;0.40;0.35;;;18.30;99.90;;;;;;5148453;28;20184;-86
2022/08/05 05:50:35;;;;;;;0.10;0.10;;;18.30;99.90;;;;;;5165999;27;20047;-87
2022/08/05 05:53:02;;;;;;;0.22;0.20;;;18.30;99.90;;;;;;5131933;28;20412;-87
2022/08/05 05:55:28;;;;;;;0.40;0.30;;;18.30;99.90;;;;;;5131565;28;20035;-86
2022/08/05 05:57:55;;;;;;;0.28;0.25;;;18.40;99.90;;;;;;5131121;28;20047;-86
2022/08/05 06:00:22;;;;;;;0.05;0.05;;;18.40;99.90;;;;;;5131911;28;20070;-86
2022/08/05 06:02:48;;;;;;;0.10;0.10;;;18.40;99.90;;;;;;5148517;28;20040;-86
2022/08/05 06:05:15;;;;;;;0.32;0.25;;;18.40;99.90;;;;;;5148787;28;20518;-88
2022/08/05 06:07:43;;;;;;;0.30;0.28;;;18.40;99.90;;;;;;5131168;28;20068;-87
2022/08/05 06:10:11;;;;;;;0.13;0.13;;;18.30;99.90;;;;;;5131379;28;20043;-87
2022/08/05 06:12:39;;;;;;;0.10;0.10;;;18.40;99.90;;;;;;5130709;28;20044;-87
2022/08/05 06:15:06;;;;;;;0.20;0.20;;;18.30;99.90;;;;;;5131379;28;20035;-85
2022/08/05 06:17:33;;;;;;;0.20;0.20;;;18.40;99.90;;;;;;5131224;28;20067;-86
2022/08/05 06:20:00;;;;;;;0.20;0.20;;;18.30;99.90;;;;;;5147629;28;20555;-86
2022/08/05 06:22:30;;;;;;;0.20;0.20;;;18.30;99.90;;;;;;5165233;27;20127;-87
2022/08/05 06:24:57;;;;;;;0.20;0.10;;;18.30;99.90;;;;;;5147699;28;20507;-85
2022/08/05 06:27:24;;;;;;;0.10;0.10;;;18.20;99.90;;;;;;5148049;28;20089;-87
2022/08/05 06:29:51;;;;;;;0.17;0.17;;;18.20;99.90;;;;;;5148103;28;20045;-86
2022/08/05 06:32:18;;;;;;;0.20;0.20;;;18.20;99.90;;;;;;5147621;28;20435;-86
2022/08/05 06:34:44;;;;;;;0.10;0.10;;;18.10;99.90;;;;;;5130444;28;20050;-85
2022/08/05 06:37:11;;;;;;;0.10;0.10;;;18.20;99.90;;;;;;5130849;28;20086;-87
2022/08/05 06:39:38;;;;;;;0.30;0.20;;;18.20;99.90;;;;;;5130948;28;20065;-85
2022/08/05 06:42:05;;;;;;;0.20;0.20;;;18.20;99.90;;;;;;5147142;28;20118;-87
2022/08/05 06:44:32;;;;;;;0.65;0.40;;;18.20;99.90;;;;;;5147703;28;20445;-86
2022/08/05 06:46:59;;;;;;;0.20;0.20;;;18.20;99.90;;;;;;5130495;28;20470;-87
2022/08/05 06:49:26;;;;;;;0.17;0.15;;;18.20;99.90;;;;;;5147807;28;20066;-87
2022/08/05 06:51:52;;;;;;;0.10;0.10;;;18.20;99.90;;;;;;5130105;28;20734;-87
2022/08/05 06:54:19;;;;;;;0.40;0.10;;;18.30;99.90;;;;;;5130669;28;20095;-87
2022/08/05 06:56:46;;;;;;;0.13;0.13;;;18.30;99.90;;;;;;5147584;28;20519;-87
2022/08/05 06:59:13;;;;;;;0.30;0.30;;;18.30;99.90;;;;;;5130943;28;20039;-86
2022/08/05 07:01:40;;;;;;;0.45;0.45;;;18.40;99.90;;;;;;5147414;28;20058;-87
2022/08/05 07:04:07;;;;;;;0.10;0.10;;;18.50;99.90;;;;;;5146740;28;20036;-87
2022/08/05 07:06:33;;;;;;;0.30;0.30;;;18.60;99.90;;;;;;5147296;28;20127;-87
2022/08/05 07:09:00;;;;;;;0.20;0.20;;;18.70;99.90;;;;;;5130119;28;20043;-86
2022/08/05 07:11:27;;;;;;;0.20;0.20;;;18.80;99.90;;;;;;5146884;28;20047;-86
2022/08/05 07:16:51;;;;;;;0.20;0.10;;;18.90;99.90;;;;;;5161859;28;20070;-87
2022/08/05 07:19:19;;;;;;;0.52;0.40;;;19.00;99.90;;;;;;5129983;28;20038;-86
2022/08/05 07:21:48;;;;;;;2.08;0.60;;;19.10;99.90;;;;;;5130316;28;20039;-86
2022/08/05 07:24:16;;;;;;;0.20;0.20;;;19.20;99.90;;;;;;5147725;28;20060;-87
2022/08/05 07:26:44;;;;;;;0.17;0.17;;;19.40;99.90;;;;;;5130290;28;20139;-87
2022/08/05 07:29:11;;;;;;;0.40;0.28;;;19.50;99.90;;;;;;5146880;28;20430;-87
2022/08/05 07:31:38;;;;;;;0.20;0.20;;;19.70;99.90;;;;;;5130151;28;20186;-87
2022/08/05 07:34:05;;;;;;;0.30;0.30;;;19.80;99.90;;;;;;5146783;28;20122;-87
2022/08/05 07:36:32;;;;;;;2.33;0.40;;;20.00;99.90;;;;;;5146950;28;20046;-87
2022/08/05 07:39:01;;;;;;;0.43;0.30;;;20.00;99.90;;;;;;5146458;28;20403;-87
2022/08/05 07:41:28;;;;;;;1.85;0.40;;;20.10;99.90;;;;;;5146990;28;20040;-86
2022/08/05 07:43:56;;;;;;;0.43;0.30;;;20.10;99.90;;;;;;5130133;28;20377;-85
2022/08/05 07:46:25;;;;;;;0.20;0.20;;;20.30;99.90;;;;;;5129766;28;20541;-86
2022/08/05 07:48:53;;;;;;;0.10;0.10;;;20.30;99.90;;;;;;5146412;28;20047;-87
2022/08/05 07:51:20;;;;;;;0.20;0.20;;;20.20;99.90;;;;;;5147295;28;20043;-86
2022/08/05 07:54:09;;;;;;;0.15;0.15;;;20.20;99.90;;;;;;5166160;27;20453;-85
2022/08/05 07:56:37;;;;;;;0.10;0.10;;;20.10;99.90;;;;;;5113032;28;20479;-84
2022/08/05 07:59:04;;;;;;;0.20;0.20;;;20.10;99.90;;;;;;5114012;28;20084;-85
2022/08/05 08:01:30;;;;;;;0.20;0.20;;;20.00;99.90;;;;;;5098096;28;20035;-85
2022/08/05 08:03:57;;;;;;;0.10;0.10;;;20.00;99.90;;;;;;5097093;28;20518;-84
2022/08/05 08:06:23;;;;;;;0.10;0.10;;;20.00;99.90;;;;;;5097590;28;20031;-85
2022/08/05 08:08:50;;;;;;;0.20;0.20;;;19.90;99.90;;;;;;5080961;28;20040;-84
2022/08/05 08:11:17;;;;;;;0.10;0.10;;;20.00;99.90;;;;;;5073715;28;20052;-84
2022/08/05 08:13:43;;;;;;;0.10;0.10;;;20.10;99.90;;;;;;5057013;28;20044;-85
2022/08/05 08:16:10;;;;;;;0.10;0.10;;;20.10;99.90;;;;;;5057324;28;20522;-85
2022/08/05 08:18:38;;;;;;;0.22;0.20;;;20.10;99.90;;;;;;5057558;28;20499;-84
2022/08/05 08:21:05;;;;;;;0.20;0.20;;;20.20;99.90;;;;;;5078290;28;20035;-85
2022/08/05 08:23:34;;;;;;;0.20;0.20;;;20.30;99.90;;;;;;5114096;28;20399;-85
2022/08/05 08:26:01;;;;;;;0.10;0.10;;;20.30;99.90;;;;;;5113696;28;20530;-85
2022/08/05 08:28:29;;;;;;;0.03;0.03;;;20.40;99.90;;;;;;5114394;28;20126;-85
2022/08/05 08:30:56;;;;;;;0.30;0.30;;;20.50;99.90;;;;;;5113886;28;20040;-85
2022/08/05 08:33:22;;;;;;;0.10;0.10;;;20.60;99.90;;;;;;5101264;28;20550;-85
2022/08/05 08:35:49;;;;;;;0.20;0.20;;;20.80;99.90;;;;;;5090157;28;20405;-85
2022/08/05 08:38:16;;;;;;;0.00;0.00;;;20.80;99.90;;;;;;5056576;28;20047;-85
2022/08/05 08:40:43;;;;;;;0.10;0.10;;;20.80;99.90;;;;;;5090088;28;20044;-85
2022/08/05 08:43:13;;;;;;;0.13;0.13;;;20.60;99.90;;;;;;5092323;28;20081;-85
2022/08/05 08:45:40;;;;;;;0.10;0.10;;;20.60;99.90;;;;;;5130226;28;20039;-85
2022/08/05 08:48:10;;;;;;;0.17;0.17;;;20.50;99.90;;;;;;5082566;28;20040;-84
2022/08/05 08:50:40;;;;;;;0.10;0.10;;;20.50;99.90;;;;;;5093672;28;20046;-85
2022/08/05 08:53:10;;;;;;;0.10;0.10;;;20.60;99.90;;;;;;5089303;28;20087;-85
2022/08/05 08:55:39;;;;;;;0.10;0.10;;;20.70;99.90;;;;;;5104579;28;20037;-85
2022/08/05 08:58:05;;;;;;;0.10;0.10;;;21.00;99.90;;;;;;5069898;28;20041;-85
2022/08/05 09:00:32;;;;;;;0.20;0.20;;;21.00;99.90;;;;;;5069538;28;20067;-85
2022/08/05 09:02:59;;;;;;;0.10;0.10;;;20.90;99.90;;;;;;5085471;28;20048;-84
2022/08/05 09:05:26;;;;;;;0.10;0.10;;;20.90;99.90;;;;;;5055986;28;20052;-85
2022/08/05 09:07:53;;;;;;;0.95;0.40;;;20.90;99.90;;;;;;5040121;28;20048;-85
2022/08/05 09:10:20;;;;;;;0.00;0.00;;;20.90;99.90;;;;;;5055957;28;20570;-87
2022/08/05 09:12:47;;;;;;;0.10;0.10;;;20.80;99.90;;;;;;5072455;28;20694;-85
2022/08/05 09:15:14;;;;;;;0.20;0.20;;;20.90;99.90;;;;;;5055767;28;20048;-85
2022/08/05 09:17:41;;;;;;;0.10;0.10;;;21.00;99.90;;;;;;5056150;28;20041;-85
2022/08/05 09:20:09;;;;;;;0.20;0.10;;;21.10;99.90;;;;;;5055716;28;20490;-85
2022/08/05 09:23:16;;;;;;;0.05;0.05;;;21.20;99.90;;;;;;5090862;28;20056;-85
2022/08/05 09:25:46;;;;;;;0.10;0.10;;;21.30;99.90;;;;;;5092248;28;20051;-84
2022/08/05 09:28:14;;;;;;;0.25;0.20;;;21.40;99.90;;;;;;5075683;28;20051;-86
2022/08/05 09:30:59;;;;;;;0.25;0.25;;;21.30;99.90;;;;;;5092097;28;20040;-85
2022/08/05 09:33:26;;;;;;;0.10;0.10;;;21.20;99.90;;;;;;5090325;28;20182;-84
2022/08/05 09:35:59;;;;;;;0.10;0.10;;;20.90;99.90;;;;;;5055411;28;20128;-86
2022/08/05 09:38:26;;;;;;;0.20;0.20;;;20.90;99.90;;;;;;5088074;28;20044;-86
2022/08/05 09:41:00;;;;;;;0.20;0.20;;;20.80;99.90;;;;;;5055485;28;20055;-83
2022/08/05 09:43:32;;;;;;;0.17;0.17;;;20.70;99.90;;;;;;5071352;28;20041;-85
2022/08/05 09:45:58;;;;;;;0.10;0.10;;;20.80;99.90;;;;;;5076449;28;20040;-85
2022/08/05 09:48:31;;;;;;;0.15;0.15;;;20.70;99.90;;;;;;5107535;28;20051;-85
2022/08/05 09:50:59;;;;;;;0.10;0.10;;;20.80;99.90;;;;;;5091522;28;20505;-85
2022/08/05 09:53:28;;;;;;;0.00;0.00;;;20.90;99.90;;;;;;5090958;28;20092;-84
2022/08/05 09:55:58;;;;;;;0.20;0.13;;;20.90;99.90;;;;;;5091988;28;20044;-84
2022/08/05 09:58:27;;;;;;;0.10;0.10;;;21.00;99.90;;;;;;5085514;28;20068;-85
2022/08/05 10:01:05;;;;;;;0.00;0.00;;;21.10;99.90;;;;;;5064310;28;20040;-85
2022/08/05 10:03:32;;;;;;;0.10;0.10;;;21.10;99.90;;;;;;5091752;28;20085;-84
2022/08/05 10:06:03;;;;;;;0.00;0.00;;;21.10;99.90;;;;;;5075140;28;20044;-85
2022/08/05 10:08:30;;;;;;;0.20;0.20;;;21.30;99.90;;;;;;5091334;28;20039;-86
2022/08/05 10:10:57;;;;;;;0.50;0.22;;;21.40;99.90;;;;;;5068704;28;20049;-85
2022/08/05 10:13:36;;;;;;;0.20;0.20;;;21.40;99.90;;;;;;5070649;28;20506;-85
2022/08/05 10:16:04;;;;;;;0.00;0.00;;;21.50;99.90;;;;;;5070395;28;20049;-84
2022/08/05 10:18:32;;;;;;;0.00;0.00;;;21.60;99.90;;;;;;5073863;28;20071;-85
2022/08/05 10:21:03;;;;;;;0.10;0.10;;;21.40;99.90;;;;;;5054454;28;20040;-85
2022/08/05 10:23:33;;;;;;;0.10;0.10;;;21.30;99.90;;;;;;5068728;28;20133;-85
2022/08/05 10:26:05;;;;;;;0.10;0.10;;;21.20;99.90;;;;;;5067774;28;20037;-85
2022/08/05 10:28:34;;;;;;;0.10;0.10;;;21.50;99.90;;;;;;5067242;28;20514;-84
2022/08/05 10:31:01;;;;;;;0.10;0.10;;;21.70;99.90;;;;;;5050880;28;20084;-86
2022/08/05 10:33:30;;;;;;;0.03;0.03;;;21.90;99.90;;;;;;5066753;28;20083;-84
2022/08/05 10:35:58;;;;;;;0.98;0.20;;;21.90;99.90;;;;;;5047884;28;20109;-85
2022/08/05 10:38:28;;;;;;;0.10;0.10;;;22.10;99.90;;;;;;5074051;28;20124;-85
2022/08/05 10:41:07;;;;;;;0.03;0.03;;;22.00;99.90;;;;;;5107298;28;20487;-85
2022/08/05 10:43:49;;;;;;;0.05;0.05;;;22.20;99.90;;;;;;5090191;28;20040;-85
2022/08/05 10:46:17;;;;;;;0.10;0.10;;;22.40;99.90;;;;;;5090216;28;20041;-84
2022/08/05 10:48:52;;;;;;;0.13;0.13;;;22.40;99.90;;;;;;5072247;28;20127;-85
2022/08/05 10:51:20;;;;;;;0.03;0.03;;;22.30;99.90;;;;;;5090193;28;20113;-85
2022/08/05 10:53:50;;;;;;;0.20;0.20;;;22.30;99.90;;;;;;5077529;28;20189;-85
2022/08/05 10:56:19;;;;;;;0.10;0.10;;;22.50;99.90;;;;;;5093843;28;20130;-85
2022/08/05 10:58:49;;;;;;;0.15;0.15;;;22.70;99.90;;;;;;5077353;28;20539;-86
2022/08/05 11:01:16;;;;;;;0.17;0.17;;;22.70;99.90;;;;;;5091735;28;20037;-85
2022/08/05 11:03:59;;;;;;;0.15;0.15;;;22.60;99.90;;;;;;5060940;28;20044;-85
2022/08/05 11:06:26;;;;;;;0.00;0.00;;;22.50;99.90;;;;;;5110040;28;20066;-85
2022/08/05 11:09:20;;;;;;;0.10;0.10;;;22.40;99.70;;;;;;5093631;28;20044;-85
2022/08/05 11:11:49;;;;;;;0.10;0.10;;;22.50;99.10;;;;;;5093073;28;20040;-85
2022/08/05 11:14:30;;;;;;;0.00;0.00;;;22.60;99.60;;;;;;5067024;28;20045;-85
2022/08/05 11:17:25;;;;;;;0.00;0.00;;;22.50;98.20;;;;;;5078029;28;20036;-86
2022/08/05 11:19:56;;;;;;;0.10;0.10;;;22.60;99.00;;;;;;5093606;28;20048;-85
2022/08/05 11:22:50;;;;;;;0.10;0.10;;;22.60;99.00;;;;;;5092925;28;20127;-85
2022/08/05 11:25:36;;;;;;;0.00;0.00;;;22.60;97.50;;;;;;5093045;28;20044;-85
2022/08/05 11:28:11;;;;;;;0.10;0.10;;;22.60;97.00;;;;;;5077141;28;20050;-85
2022/08/05 11:31:02;;;;;;;0.15;0.15;;;22.50;93.90;;;;;;5093067;28;20108;-85
2022/08/05 11:33:39;;;;;;;0.00;0.00;;;22.70;94.10;;;;;;5092833;28;20074;-85
2022/08/05 11:36:10;;;;;;;0.10;0.10;;;22.60;93.30;;;;;;5093346;28;20040;-85
2022/08/05 11:38:42;;;;;;;0.00;0.00;;;22.80;95.30;;;;;;5092859;28;20047;-85
2022/08/05 11:41:30;;;;;;;0.10;0.10;;;22.90;95.40;;;;;;5109328;28;20062;-85
2022/08/05 11:44:03;;;;;;;0.10;0.10;;;22.90;93.00;;;;;;5077034;28;20044;-85
2022/08/05 11:46:32;;;;;;;0.10;0.10;;;22.90;93.90;;;;;;5109657;28;20047;-85
2022/08/05 11:49:00;;;;;;;0.00;0.00;;;22.70;93.20;;;;;;5093001;28;20043;-85
2022/08/05 11:51:28;;;;;;;0.00;0.00;;;22.60;93.70;;;;;;5091369;28;20094;-85
2022/08/05 11:53:56;;;;;;;0.00;0.00;;;22.60;95.20;;;;;;5089119;28;20416;-85
2022/08/05 11:56:23;;;;;;;0.10;0.10;;;22.60;95.00;;;;;;5072811;28;20040;-85
2022/08/05 11:58:50;;;;;;;0.05;0.05;;;22.60;93.90;;;;;;5056649;28;20036;-85
2022/08/05 12:01:20;;;;;;;0.00;0.00;;;22.60;94.80;;;;;;5056631;28;20040;-85
2022/08/05 12:03:51;;;;;;;0.00;0.00;;;22.80;94.10;;;;;;5073196;28;20131;-85
2022/08/05 12:06:24;;;;;;;0.00;0.00;;;23.10;92.90;;;;;;5089792;28;20045;-84
2022/08/05 12:08:57;;;;;;;0.10;0.10;;;22.90;92.30;;;;;;5089298;28;20101;-84
2022/08/05 12:11:27;;;;;;;0.00;0.00;;;22.80;94.00;;;;;;5072666;28;20047;-85
2022/08/05 12:14:05;;;;;;;0.00;0.00;;;22.80;93.50;;;;;;5072806;28;20113;-85
2022/08/05 12:16:33;;;;;;;0.10;0.10;;;22.60;93.80;;;;;;5072816;28;20037;-85
2022/08/05 12:19:01;;;;;;;0.05;0.05;;;22.50;93.70;;;;;;5056432;28;20471;-85
2022/08/05 12:21:40;;;;;;;0.10;0.10;;;22.40;93.40;;;;;;5072442;28;20043;-85
2022/08/05 12:24:10;;;;;;;0.10;0.10;;;22.20;93.90;;;;;;5057164;28;20032;-85
2022/08/05 12:26:46;;;;;;;0.00;0.00;;;22.10;93.10;;;;;;5055996;28;20040;-85
2022/08/05 12:29:14;;;;;;;0.00;0.00;;;22.10;93.60;;;;;;5088916;28;20037;-85
2022/08/05 12:32:00;;;;;;;0.30;0.20;;;22.00;92.70;;;;;;5032757;28;20084;-85
2022/08/05 12:34:30;;;;;;;0.00;0.00;;;22.10;92.80;;;;;;5049241;28;20037;-85
2022/08/05 12:37:11;;;;;;;0.00;0.00;;;22.30;94.20;;;;;;5049045;28;20080;-85
2022/08/05 12:39:39;;;;;;;0.10;0.10;;;22.10;93.30;;;;;;5034882;28;20044;-85
2022/08/05 12:42:11;;;;;;;0.30;0.20;;;22.30;94.20;;;;;;5036407;28;20041;-85
2022/08/05 12:44:39;;;;;;;0.00;0.00;;;22.40;93.40;;;;;;5052292;28;20041;-85
2022/08/05 12:47:06;;;;;;;0.00;0.00;;;22.50;94.00;;;;;;5052524;28;20041;-85
2022/08/05 12:49:48;;;;;;;0.00;0.00;;;22.60;92.90;;;;;;5036116;28;20052;-85
2022/08/05 12:52:17;;;;;;;0.25;0.08;;;22.60;92.60;;;;;;5037834;28;20522;-85
2022/08/05 12:54:47;;;;;;;0.30;0.10;;;22.30;94.10;;;;;;5036655;28;20045;-85
2022/08/05 12:57:14;;;;;;;0.00;0.00;;;22.20;93.30;;;;;;5068971;28;20064;-85
2022/08/05 12:59:48;;;;;;;0.03;0.03;;;22.00;93.00;;;;;;5019941;28;20041;-85
2022/08/05 13:02:22;;;;;;;0.10;0.10;;;21.60;92.20;;;;;;5060405;28;20064;-85
2022/08/05 13:04:49;;;;;;;0.10;0.10;;;21.50;92.80;;;;;;5051901;28;20060;-85